Panda — PBCS — position and weather

sailwx.info

Track history (hours):
 
Tides and Currents Weather Stations Pressure Air Temp Water Temp Dewpoint Dewpoint Depression Visibility Wind Speed Wind Dir Waves Ship Positions

Panda

Last reported at 2017-Dec-15 08:43 UTC. Time now 2017-Dec-15 10:27 UTC.
Position N 53°46' E 014°24'.

Length 89 m; draft 4.4 m.

Type: Cargo ship. MMSI: 245014000.

Date/timePositionNaut miles runAvg speedWind from/ knotsBaromVisibWave heightAir tempDewpointWater temp
2017-Dec-15 08:43N 53°46' E 014°24'310.4
2017-Dec-15 08:24N 53°43' E 014°27'410.6
2017-Dec-15 08:00N 53°40' E 014°32'510.1
2017-Dec-15 07:30N 53°36' E 014°36'5 9.6
2017-Dec-15 07:01N 53°31' E 014°38'4 8.3
2017-Dec-15 06:31N 53°27' E 014°36'3 5.9
2017-Dec-15 05:59N 53°24' E 014°36'0 0.0
2017-Dec-15 05:29N 53°24' E 014°36'0 0.0
2017-Dec-15 04:59N 53°24' E 014°36'0 0.0
2017-Dec-15 04:29N 53°24' E 014°36'0 0.0
2017-Dec-15 03:59N 53°24' E 014°36'0 0.0
2017-Dec-15 02:29N 53°24' E 014°36'0 0.0
2017-Dec-15 00:59N 53°24' E 014°36'0 0.0
2017-Dec-15 00:29N 53°24' E 014°36'0 0.0
2017-Dec-14 18:29N 53°24' E 014°36'0 0.0
2017-Dec-14 17:59N 53°24' E 014°36'0 0.0
2017-Dec-14 17:26N 53°24' E 014°36'0 0.0
2017-Dec-14 16:58N 53°24' E 014°36'0 0.0
2017-Dec-14 16:28N 53°24' E 014°36'0 0.0
2017-Dec-14 15:58N 53°24' E 014°36'0 0.0
2017-Dec-14 14:58N 53°24' E 014°36'0 0.0
2017-Dec-14 14:28N 53°24' E 014°36'0 0.0
2017-Dec-14 13:58N 53°24' E 014°36'0 0.0
2017-Dec-14 13:28N 53°24' E 014°36'0 0.0
2017-Dec-14 12:58N 53°24' E 014°36'0 0.0
2017-Dec-14 12:28N 53°24' E 014°36'0 0.0
2017-Dec-14 11:58N 53°24' E 014°36'0 0.0
2017-Dec-14 11:28N 53°24' E 014°36'0 0.0
2017-Dec-14 10:58N 53°24' E 014°36'0 0.0
2017-Dec-14 10:28N 53°24' E 014°36'0 0.0
2017-Dec-14 09:58N 53°24' E 014°36'0 0.0
2017-Dec-14 09:28N 53°24' E 014°36'0 0.0
2017-Dec-14 08:59N 53°24' E 014°36'2 4.5
2017-Dec-14 08:30N 53°26' E 014°36'4 8.7
2017-Dec-14 08:00N 53°30' E 014°38'510.2
2017-Dec-14 07:31N 53°35' E 014°36'611.1
2017-Dec-14 07:01N 53°40' E 014°31'611.8
2017-Dec-14 06:30N 53°45' E 014°25'60 8.4
2017-Dec-13 23:22N 54°43' E 013°59'3 7.6
2017-Dec-13 22:55N 54°46' E 013°58'4 7.2
2017-Dec-13 22:26N 54°50' E 013°57'3 6.7
2017-Dec-13 21:59N 54°53' E 013°58'6 5.3
2017-Dec-13 20:46N 54°59' E 014°00'2 4.6
2017-Dec-13 20:20N 55°01' E 014°01'3 5.0
2017-Dec-13 19:45N 55°04' E 014°03'2 5.3
2017-Dec-13 19:26N 55°05' E 014°05'2 4.0
2017-Dec-13 18:51N 55°07' E 014°07'4 3.7
2017-Dec-13 17:53N 55°10' E 014°11'2 3.9
2017-Dec-13 17:28N 55°11' E 014°12'2 3.7
2017-Dec-13 16:56N 55°13' E 014°14'2 4.1
2017-Dec-13 16:30N 55°14' E 014°16'2 4.1
2017-Dec-13 15:57N 55°16' E 014°19'2 3.8
2017-Dec-13 15:30N 55°17' E 014°20'2 4.8
2017-Dec-13 15:00N 55°19' E 014°23'3 5.2
2017-Dec-13 14:30N 55°21' E 014°26'2 4.3
2017-Dec-13 13:59N 55°23' E 014°28'3 5.4
2017-Dec-13 13:30N 55°25' E 014°31'3 5.1
2017-Dec-13 13:00N 55°27' E 014°33'  
2017-Dec-10 09:53N 55°40' E 014°37'710.3
2017-Dec-10 09:10N 55°32' E 014°37'410.0
2017-Dec-10 08:45N 55°28' E 014°37'3 9.9
2017-Dec-10 08:29N 55°26' E 014°37'5 9.8
2017-Dec-10 08:00N 55°21' E 014°34'5 9.8
2017-Dec-10 07:30N 55°17' E 014°29'5 9.4
2017-Dec-10 06:58N 55°13' E 014°24'4 8.8
2017-Dec-10 06:30N 55°10' E 014°19'5 8.8
2017-Dec-10 05:59N 55°07' E 014°14'5 9.1
2017-Dec-10 05:27N 55°03' E 014°09'12 9.4
2017-Dec-10 04:12N 54°58' E 013°50'5 9.6
2017-Dec-10 03:42N 54°57' E 013°42'39 9.6
2017-Dec-09 23:37N 54°40' E 012°41'110.0
2017-Dec-09 23:30N 54°39' E 012°39'810.4
2017-Dec-09 22:47N 54°35' E 012°28'310.3
2017-Dec-09 22:30N 54°34' E 012°24'7 9.5
2017-Dec-09 21:45N 54°29' E 012°15'2 9.7
2017-Dec-09 21:31N 54°27' E 012°13'5 9.2
2017-Dec-09 20:59N 54°24' E 012°06'5 9.6
2017-Dec-09 20:30N 54°25' E 011°58'12 9.7
2017-Dec-09 19:17N 54°27' E 011°38'310.1
2017-Dec-09 19:01N 54°28' E 011°34'510.6
2017-Dec-09 18:30N 54°30' E 011°25'611.1
2017-Dec-09 18:01N 54°32' E 011°17'510.9
2017-Dec-09 17:31N 54°34' E 011°08'510.4
2017-Dec-09 17:01N 54°34' E 010°59'5 9.9
2017-Dec-09 16:31N 54°34' E 010°50'5 9.8
2017-Dec-09 16:01N 54°33' E 010°42'5 9.6
2017-Dec-09 15:30N 54°33' E 010°34'27 6.1
2017-Dec-09 11:01N 54°22' E 009°50'4 7.6
2017-Dec-09 10:31N 54°20' E 009°44'4 7.5
2017-Dec-09 10:00N 54°17' E 009°40'3 5.7
2017-Dec-09 09:30N 54°15' E 009°37'3 7.0
2017-Dec-09 09:01N 54°12' E 009°34'4 8.4
2017-Dec-09 08:30N 54°11' E 009°27'4 8.1
2017-Dec-09 08:01N 54°09' E 009°21'4 8.1
2017-Dec-09 07:30N 54°05' E 009°19'4 8.3
2017-Dec-09 07:00N 54°01' E 009°18'4 8.0
2017-Dec-09 06:30N 53°57' E 009°15'4 8.0
2017-Dec-09 06:00N 53°54' E 009°10'1 2.0
2017-Dec-09 05:30N 53°54' E 009°09'1 2.0
2017-Dec-09 05:00N 53°53' E 009°07'1 2.7
2017-Dec-09 04:30N 53°53' E 009°05'510.9
2017-Dec-09 04:00N 53°51' E 008°57'612.5
2017-Dec-09 03:30N 53°51' E 008°46'611.6
2017-Dec-09 03:00N 53°55' E 008°40'611.6
2017-Dec-09 02:30N 53°58' E 008°31'612.2
2017-Dec-09 02:00N 53°59' E 008°21'611.5
2017-Dec-09 01:30N 53°59' E 008°11'510.9
2017-Dec-09 01:00N 53°58' E 008°02'611.2
2017-Dec-09 00:30N 53°57' E 007°53'611.0
2017-Dec-08 23:57N 53°55' E 007°43'510.9
2017-Dec-08 23:30N 53°54' E 007°35'77 9.4
2017-Dec-08 15:20N 53°33' E 005°29'3 9.1
2017-Dec-08 15:00N 53°33' E 005°24'4 9.0
2017-Dec-08 14:31N 53°31' E 005°17'5 9.1
2017-Dec-08 14:01N 53°30' E 005°10'5 9.3
2017-Dec-08 13:30N 53°28' E 005°03'5 9.3
2017-Dec-08 13:00N 53°26' E 004°55'5 9.2
2017-Dec-08 12:30N 53°25' E 004°48'20 8.2
2017-Dec-08 10:07N 53°08' E 004°30'1 9.0
2017-Dec-08 09:57N 53°07' E 004°29'5 9.8
2017-Dec-08 09:30N 53°03' E 004°25'510.2
2017-Dec-08 09:00N 52°59' E 004°21'510.3
2017-Dec-08 08:31N 52°54' E 004°17'510.4
2017-Dec-08 08:01N 52°50' E 004°12'510.4
2017-Dec-08 07:31N 52°45' E 004°08'510.5
2017-Dec-08 07:00N 52°41' E 004°03'510.5
2017-Dec-08 06:31N 52°37' E 003°57'510.8
2017-Dec-08 06:00N 52°33' E 003°51'76 8.6
2017-Dec-07 21:12N 51°38' E 002°27'2 8.4
2017-Dec-07 20:56N 51°36' E 002°25'4 9.0
2017-Dec-07 20:28N 51°33' E 002°20'5 9.1
2017-Dec-07 19:55N 51°29' E 002°16'4 9.8
2017-Dec-07 19:31N 51°25' E 002°13'510.2
2017-Dec-07 19:00N 51°21' E 002°09'510.8
2017-Dec-07 18:30N 51°16' E 002°05'611.1
2017-Dec-07 18:00N 51°12' E 001°59'611.6
2017-Dec-07 17:30N 51°08' E 001°51'612.0
2017-Dec-07 17:00N 51°04' E 001°45'612.4
2017-Dec-07 16:30N 50°59' E 001°38'612.6
2017-Dec-07 16:00N 50°55' E 001°31'5611.1
2017-Dec-07 10:56N 50°24' E 000°17'512.1
2017-Dec-07 10:30N 50°23' E 000°09'612.0
2017-Dec-07 10:01N 50°21' E 000°00'611.5
2017-Dec-07 09:28N 50°20' W 000°09'511.2
2017-Dec-07 09:01N 50°19' W 000°17'89 8.5
2017-Dec-06 22:31N 50°13' W 002°37'011.7
2017-Dec-06 22:30N 50°13' W 002°37'611.6
2017-Dec-06 22:00N 50°13' W 002°46'611.3
2017-Dec-06 21:30N 50°13' W 002°55'511.1
2017-Dec-06 21:00N 50°12' W 003°03'  
Track history (hours):
 
Tides and Currents Weather Stations Pressure Air Temp Water Temp Dewpoint Dewpoint Depression Visibility Wind Speed Wind Dir Waves Ship Positions

Panda

Last reported at 2017-Dec-15 08:43 UTC. Time now 2017-Dec-15 10:27 UTC.
Position N 53°46' E 014°24'.

Length 89 m; draft 4.4 m.

Type: Cargo ship. MMSI: 245014000.

Date/timePositionNaut miles runAvg speedWind from/ knotsBaromVisibWave heightAir tempDewpointWater temp
2017-Dec-15 08:43N 53°46' E 014°24'310.4
2017-Dec-15 08:24N 53°43' E 014°27'410.6
2017-Dec-15 08:00N 53°40' E 014°32'510.1
2017-Dec-15 07:30N 53°36' E 014°36'5 9.6
2017-Dec-15 07:01N 53°31' E 014°38'4 8.3
2017-Dec-15 06:31N 53°27' E 014°36'3 5.9
2017-Dec-15 05:59N 53°24' E 014°36'0 0.0
2017-Dec-15 05:29N 53°24' E 014°36'0 0.0
2017-Dec-15 04:59N 53°24' E 014°36'0 0.0
2017-Dec-15 04:29N 53°24' E 014°36'0 0.0
2017-Dec-15 03:59N 53°24' E 014°36'0 0.0
2017-Dec-15 02:29N 53°24' E 014°36'0 0.0
2017-Dec-15 00:59N 53°24' E 014°36'0 0.0
2017-Dec-15 00:29N 53°24' E 014°36'0 0.0
2017-Dec-14 18:29N 53°24' E 014°36'0 0.0
2017-Dec-14 17:59N 53°24' E 014°36'0 0.0
2017-Dec-14 17:26N 53°24' E 014°36'0 0.0
2017-Dec-14 16:58N 53°24' E 014°36'0 0.0
2017-Dec-14 16:28N 53°24' E 014°36'0 0.0
2017-Dec-14 15:58N 53°24' E 014°36'0 0.0
2017-Dec-14 14:58N 53°24' E 014°36'0 0.0
2017-Dec-14 14:28N 53°24' E 014°36'0 0.0
2017-Dec-14 13:58N 53°24' E 014°36'0 0.0
2017-Dec-14 13:28N 53°24' E 014°36'0 0.0
2017-Dec-14 12:58N 53°24' E 014°36'0 0.0
2017-Dec-14 12:28N 53°24' E 014°36'0 0.0
2017-Dec-14 11:58N 53°24' E 014°36'0 0.0
2017-Dec-14 11:28N 53°24' E 014°36'0 0.0
2017-Dec-14 10:58N 53°24' E 014°36'0 0.0
2017-Dec-14 10:28N 53°24' E 014°36'0 0.0
2017-Dec-14 09:58N 53°24' E 014°36'0 0.0
2017-Dec-14 09:28N 53°24' E 014°36'0 0.0
2017-Dec-14 08:59N 53°24' E 014°36'2 4.5
2017-Dec-14 08:30N 53°26' E 014°36'4 8.7
2017-Dec-14 08:00N 53°30' E 014°38'510.2
2017-Dec-14 07:31N 53°35' E 014°36'611.1
2017-Dec-14 07:01N 53°40' E 014°31'611.8
2017-Dec-14 06:30N 53°45' E 014°25'60 8.4
2017-Dec-13 23:22N 54°43' E 013°59'3 7.6
2017-Dec-13 22:55N 54°46' E 013°58'4 7.2
2017-Dec-13 22:26N 54°50' E 013°57'3 6.7
2017-Dec-13 21:59N 54°53' E 013°58'6 5.3
2017-Dec-13 20:46N 54°59' E 014°00'2 4.6
2017-Dec-13 20:20N 55°01' E 014°01'3 5.0
2017-Dec-13 19:45N 55°04' E 014°03'2 5.3
2017-Dec-13 19:26N 55°05' E 014°05'2 4.0
2017-Dec-13 18:51N 55°07' E 014°07'4 3.7
2017-Dec-13 17:53N 55°10' E 014°11'2 3.9
2017-Dec-13 17:28N 55°11' E 014°12'2 3.7
2017-Dec-13 16:56N 55°13' E 014°14'2 4.1
2017-Dec-13 16:30N 55°14' E 014°16'2 4.1
2017-Dec-13 15:57N 55°16' E 014°19'2 3.8
2017-Dec-13 15:30N 55°17' E 014°20'2 4.8
2017-Dec-13 15:00N 55°19' E 014°23'3 5.2
2017-Dec-13 14:30N 55°21' E 014°26'2 4.3
2017-Dec-13 13:59N 55°23' E 014°28'3 5.4
2017-Dec-13 13:30N 55°25' E 014°31'3 5.1
2017-Dec-13 13:00N 55°27' E 014°33'  
2017-Dec-10 09:53N 55°40' E 014°37'710.3
2017-Dec-10 09:10N 55°32' E 014°37'410.0
2017-Dec-10 08:45N 55°28' E 014°37'3 9.9
2017-Dec-10 08:29N 55°26' E 014°37'5 9.8
2017-Dec-10 08:00N 55°21' E 014°34'5 9.8
2017-Dec-10 07:30N 55°17' E 014°29'5 9.4
2017-Dec-10 06:58N 55°13' E 014°24'4 8.8
2017-Dec-10 06:30N 55°10' E 014°19'5 8.8
2017-Dec-10 05:59N 55°07' E 014°14'5 9.1
2017-Dec-10 05:27N 55°03' E 014°09'12 9.4
2017-Dec-10 04:12N 54°58' E 013°50'5 9.6
2017-Dec-10 03:42N 54°57' E 013°42'39 9.6
2017-Dec-09 23:37N 54°40' E 012°41'110.0
2017-Dec-09 23:30N 54°39' E 012°39'810.4
2017-Dec-09 22:47N 54°35' E 012°28'310.3
2017-Dec-09 22:30N 54°34' E 012°24'7 9.5
2017-Dec-09 21:45N 54°29' E 012°15'2 9.7
2017-Dec-09 21:31N 54°27' E 012°13'5 9.2
2017-Dec-09 20:59N 54°24' E 012°06'5 9.6
2017-Dec-09 20:30N 54°25' E 011°58'12 9.7
2017-Dec-09 19:17N 54°27' E 011°38'310.1
2017-Dec-09 19:01N 54°28' E 011°34'510.6
2017-Dec-09 18:30N 54°30' E 011°25'611.1
2017-Dec-09 18:01N 54°32' E 011°17'510.9
2017-Dec-09 17:31N 54°34' E 011°08'510.4
2017-Dec-09 17:01N 54°34' E 010°59'5 9.9
2017-Dec-09 16:31N 54°34' E 010°50'5 9.8
2017-Dec-09 16:01N 54°33' E 010°42'5 9.6
2017-Dec-09 15:30N 54°33' E 010°34'27 6.1
2017-Dec-09 11:01N 54°22' E 009°50'4 7.6
2017-Dec-09 10:31N 54°20' E 009°44'4 7.5
2017-Dec-09 10:00N 54°17' E 009°40'3 5.7
2017-Dec-09 09:30N 54°15' E 009°37'3 7.0
2017-Dec-09 09:01N 54°12' E 009°34'4 8.4
2017-Dec-09 08:30N 54°11' E 009°27'4 8.1
2017-Dec-09 08:01N 54°09' E 009°21'4 8.1
2017-Dec-09 07:30N 54°05' E 009°19'4 8.3
2017-Dec-09 07:00N 54°01' E 009°18'4 8.0
2017-Dec-09 06:30N 53°57' E 009°15'4 8.0
2017-Dec-09 06:00N 53°54' E 009°10'1 2.0
2017-Dec-09 05:30N 53°54' E 009°09'1 2.0
2017-Dec-09 05:00N 53°53' E 009°07'1 2.7
2017-Dec-09 04:30N 53°53' E 009°05'510.9
2017-Dec-09 04:00N 53°51' E 008°57'612.5
2017-Dec-09 03:30N 53°51' E 008°46'611.6
2017-Dec-09 03:00N 53°55' E 008°40'611.6
2017-Dec-09 02:30N 53°58' E 008°31'612.2
2017-Dec-09 02:00N 53°59' E 008°21'611.5
2017-Dec-09 01:30N 53°59' E 008°11'510.9
2017-Dec-09 01:00N 53°58' E 008°02'611.2
2017-Dec-09 00:30N 53°57' E 007°53'611.0
2017-Dec-08 23:57N 53°55' E 007°43'510.9
2017-Dec-08 23:30N 53°54' E 007°35'77 9.4
2017-Dec-08 15:20N 53°33' E 005°29'3 9.1
2017-Dec-08 15:00N 53°33' E 005°24'4 9.0
2017-Dec-08 14:31N 53°31' E 005°17'5 9.1
2017-Dec-08 14:01N 53°30' E 005°10'5 9.3
2017-Dec-08 13:30N 53°28' E 005°03'5 9.3
2017-Dec-08 13:00N 53°26' E 004°55'5 9.2
2017-Dec-08 12:30N 53°25' E 004°48'20 8.2
2017-Dec-08 10:07N 53°08' E 004°30'1 9.0
2017-Dec-08 09:57N 53°07' E 004°29'5 9.8
2017-Dec-08 09:30N 53°03' E 004°25'510.2
2017-Dec-08 09:00N 52°59' E 004°21'510.3
2017-Dec-08 08:31N 52°54' E 004°17'510.4
2017-Dec-08 08:01N 52°50' E 004°12'510.4
2017-Dec-08 07:31N 52°45' E 004°08'510.5
2017-Dec-08 07:00N 52°41' E 004°03'510.5
2017-Dec-08 06:31N 52°37' E 003°57'510.8
2017-Dec-08 06:00N 52°33' E 003°51'76 8.6
2017-Dec-07 21:12N 51°38' E 002°27'2 8.4
2017-Dec-07 20:56N 51°36' E 002°25'4 9.0
2017-Dec-07 20:28N 51°33' E 002°20'5 9.1
2017-Dec-07 19:55N 51°29' E 002°16'4 9.8
2017-Dec-07 19:31N 51°25' E 002°13'510.2
2017-Dec-07 19:00N 51°21' E 002°09'510.8
2017-Dec-07 18:30N 51°16' E 002°05'611.1
2017-Dec-07 18:00N 51°12' E 001°59'611.6
2017-Dec-07 17:30N 51°08' E 001°51'612.0
2017-Dec-07 17:00N 51°04' E 001°45'612.4
2017-Dec-07 16:30N 50°59' E 001°38'612.6
2017-Dec-07 16:00N 50°55' E 001°31'5611.1
2017-Dec-07 10:56N 50°24' E 000°17'512.1
2017-Dec-07 10:30N 50°23' E 000°09'612.0
2017-Dec-07 10:01N 50°21' E 000°00'611.5
2017-Dec-07 09:28N 50°20' W 000°09'511.2
2017-Dec-07 09:01N 50°19' W 000°17'89 8.5
2017-Dec-06 22:31N 50°13' W 002°37'011.7
2017-Dec-06 22:30N 50°13' W 002°37'611.6
2017-Dec-06 22:00N 50°13' W 002°46'611.3
2017-Dec-06 21:30N 50°13' W 002°55'511.1
2017-Dec-06 21:00N 50°12' W 003°03'  

Dump ship's entire track history